createdAt,value
2023-03-01T00:00:34.071Z,0.00
2023-03-01T00:01:34.050Z,0.00
2023-03-01T00:02:34.085Z,0.00
2023-03-01T00:03:34.086Z,0.00
2023-03-01T00:04:34.025Z,0.00
2023-03-01T00:05:34.002Z,0.00
2023-03-01T00:06:34.102Z,0.00
2023-03-01T00:07:33.978Z,0.00
2023-03-01T00:08:33.982Z,0.00
2023-03-01T00:09:33.968Z,0.00
2023-03-01T00:10:33.948Z,0.00
2023-03-01T00:11:33.936Z,0.00
2023-03-01T00:12:33.927Z,0.00
2023-03-01T00:13:33.916Z,0.00
2023-03-01T00:14:33.924Z,0.00
2023-03-01T00:15:33.889Z,0.00
2023-03-01T00:16:34.037Z,0.00
2023-03-01T00:17:33.879Z,0.00
2023-03-01T00:18:33.856Z,0.00
2023-03-01T00:19:33.848Z,0.00
2023-03-01T00:20:33.858Z,0.00
2023-03-01T00:21:33.830Z,0.00
2023-03-01T00:22:33.823Z,0.00
2023-03-01T00:23:33.806Z,0.00
2023-03-01T00:24:33.794Z,0.00
2023-03-01T00:25:33.793Z,0.00
2023-03-01T00:26:33.831Z,0.00
2023-03-01T00:27:33.756Z,0.00
2023-03-01T00:28:33.746Z,0.00
2023-03-01T00:29:33.737Z,0.00
2023-03-01T00:30:33.795Z,0.00
2023-03-01T00:31:33.750Z,0.00
2023-03-01T00:32:33.719Z,0.00
2023-03-01T00:33:33.688Z,0.00
2023-03-01T00:34:33.689Z,0.00
2023-03-01T00:35:33.695Z,0.00
2023-03-01T00:36:33.962Z,0.00
2023-03-01T00:37:33.672Z,0.00
2023-03-01T00:38:33.640Z,0.00
2023-03-01T00:39:33.619Z,0.00
2023-03-01T00:40:33.617Z,0.00
2023-03-01T00:41:33.609Z,0.00
2023-03-01T00:42:33.600Z,0.00
2023-03-01T00:43:33.591Z,0.00
2023-03-01T00:44:33.574Z,0.00
2023-03-01T00:45:33.565Z,0.00
2023-03-01T00:46:33.921Z,0.00
2023-03-01T00:47:33.540Z,0.00
2023-03-01T00:48:33.548Z,0.00
2023-03-01T00:49:33.518Z,0.00
2023-03-01T00:50:33.517Z,0.00
2023-03-01T00:51:33.489Z,0.00
2023-03-01T00:52:33.488Z,0.00
2023-03-01T00:53:33.483Z,0.00
2023-03-01T00:54:33.499Z,0.00
2023-03-01T00:55:33.453Z,0.00
2023-03-01T00:56:33.834Z,0.00
2023-03-01T00:57:33.432Z,0.00
2023-03-01T00:58:33.422Z,0.00
2023-03-01T00:59:33.419Z,0.00
2023-03-01T01:00:33.408Z,0.00
2023-03-01T01:01:33.467Z,0.00
2023-03-01T01:02:33.434Z,0.00
2023-03-01T01:03:33.358Z,0.00
2023-03-01T01:04:33.346Z,0.00
2023-03-01T01:05:33.336Z,0.00
2023-03-01T01:06:33.507Z,0.00
2023-03-01T01:07:33.325Z,0.00
2023-03-01T01:08:33.315Z,0.00
2023-03-01T01:09:33.297Z,0.00
2023-03-01T01:10:33.285Z,0.00
2023-03-01T01:11:33.275Z,0.00
2023-03-01T01:12:33.274Z,0.00
2023-03-01T01:13:33.244Z,0.00
2023-03-01T01:14:33.238Z,0.00
2023-03-01T01:15:33.250Z,0.00
2023-03-01T01:16:33.530Z,0.00
2023-03-01T01:17:33.236Z,0.00
2023-03-01T01:18:33.191Z,0.00
2023-03-01T01:19:33.183Z,0.00
2023-03-01T01:20:33.182Z,0.00
2023-03-01T01:21:33.167Z,0.00
2023-03-01T01:22:33.143Z,0.00
2023-03-01T01:23:33.165Z,0.00
2023-03-01T01:24:33.127Z,0.00
2023-03-01T01:25:33.112Z,0.00
2023-03-01T01:26:33.459Z,0.00
2023-03-01T01:27:33.092Z,0.00
2023-03-01T01:28:33.086Z,0.00
2023-03-01T01:29:33.092Z,0.00
2023-03-01T01:30:33.059Z,0.00
2023-03-01T01:31:33.121Z,0.00
2023-03-01T01:32:33.033Z,0.00
2023-03-01T01:33:33.032Z,0.00
2023-03-01T01:34:33.029Z,0.00
2023-03-01T01:35:33.052Z,0.00
2023-03-01T01:36:33.303Z,0.00
2023-03-01T01:37:32.987Z,0.00
2023-03-01T01:38:32.979Z,0.00
2023-03-01T01:39:32.959Z,0.00
2023-03-01T01:40:32.940Z,0.00
2023-03-01T01:41:32.946Z,0.00
2023-03-01T01:42:32.919Z,0.00
2023-03-01T01:43:32.918Z,0.00
2023-03-01T01:44:32.888Z,0.00
2023-03-01T01:45:32.891Z,0.00
2023-03-01T01:46:33.319Z,0.00
2023-03-01T01:47:32.866Z,0.00
2023-03-01T01:48:32.846Z,0.00
2023-03-01T01:49:32.849Z,0.00
2023-03-01T01:50:32.829Z,0.00
2023-03-01T01:51:32.827Z,0.00
2023-03-01T01:52:32.826Z,0.00
2023-03-01T01:53:32.797Z,0.00
2023-03-01T01:54:32.797Z,0.00
2023-03-01T01:55:32.776Z,0.00
2023-03-01T01:56:32.988Z,0.00
2023-03-01T01:57:32.757Z,0.00
2023-03-01T01:58:32.764Z,0.00
2023-03-01T01:59:32.725Z,0.00
2023-03-01T02:00:32.716Z,0.00
2023-03-01T02:01:32.707Z,0.00
2023-03-01T02:02:32.748Z,0.00
2023-03-01T02:03:32.803Z,0.00
2023-03-01T02:04:32.694Z,0.00
2023-03-01T02:05:32.665Z,0.00
2023-03-01T02:06:32.992Z,0.00
2023-03-01T02:07:32.645Z,0.00
2023-03-01T02:08:32.636Z,0.00
2023-03-01T02:09:32.624Z,0.00
2023-03-01T02:10:32.624Z,0.00
2023-03-01T02:11:32.604Z,0.00
2023-03-01T02:12:32.586Z,0.00
2023-03-01T02:13:32.578Z,0.00
2023-03-01T02:14:32.565Z,0.00
2023-03-01T02:15:32.555Z,0.00
2023-03-01T02:16:32.964Z,0.00
2023-03-01T02:17:32.537Z,0.00
2023-03-01T02:18:32.524Z,0.00
2023-03-01T02:19:32.503Z,0.00
2023-03-01T02:20:32.504Z,0.00
2023-03-01T02:21:32.494Z,0.00
2023-03-01T02:22:32.537Z,0.00
2023-03-01T02:23:32.464Z,0.00
2023-03-01T02:24:32.560Z,0.00
2023-03-01T02:26:30.304Z,0.00
2023-03-01T02:27:30.077Z,0.00
2023-03-01T02:28:30.067Z,0.00
2023-03-01T02:29:30.042Z,0.00
2023-03-01T02:30:30.031Z,0.00
2023-03-01T02:31:30.101Z,0.00
2023-03-01T02:32:30.002Z,0.00
2023-03-01T02:33:30.010Z,0.00
2023-03-01T02:34:29.981Z,0.00
2023-03-01T02:35:29.976Z,0.00
2023-03-01T02:36:30.319Z,0.00
2023-03-01T02:37:29.950Z,0.00
2023-03-01T02:38:29.969Z,0.00
2023-03-01T02:39:29.933Z,0.00
2023-03-01T02:40:29.910Z,0.00
2023-03-01T02:41:29.918Z,0.00
2023-03-01T02:42:29.896Z,0.00
2023-03-01T02:43:29.885Z,0.00
2023-03-01T02:44:29.944Z,0.00
2023-03-01T02:45:29.867Z,0.00
2023-03-01T02:46:30.162Z,0.00
2023-03-01T02:47:29.867Z,0.00
2023-03-01T02:48:29.833Z,0.00
2023-03-01T02:49:29.823Z,0.00
2023-03-01T02:50:29.872Z,0.00
2023-03-01T02:51:29.800Z,0.00
2023-03-01T02:52:29.812Z,0.00
2023-03-01T02:53:29.781Z,0.00
2023-03-01T02:54:29.793Z,0.00
2023-03-01T02:55:29.781Z,0.00
2023-03-01T02:56:30.017Z,0.00
2023-03-01T02:57:29.736Z,0.00
2023-03-01T02:58:29.742Z,0.00
2023-03-01T02:59:29.724Z,0.00
2023-03-01T03:00:29.760Z,0.00
2023-03-01T03:01:29.688Z,0.00
2023-03-01T03:02:29.680Z,0.00
2023-03-01T03:03:29.710Z,0.00
2023-03-01T03:04:29.649Z,0.00
2023-03-01T03:05:29.648Z,0.00
2023-03-01T03:06:29.873Z,0.00
2023-03-01T03:07:29.646Z,0.00
2023-03-01T03:08:29.633Z,0.00
2023-03-01T03:09:29.634Z,0.00
2023-03-01T03:10:29.595Z,0.00
2023-03-01T03:11:29.587Z,0.00
2023-03-01T03:12:29.569Z,0.00
2023-03-01T03:13:29.577Z,0.00
2023-03-01T03:14:29.573Z,0.00
2023-03-01T03:15:29.537Z,0.00
2023-03-01T03:16:29.899Z,0.00
2023-03-01T03:17:29.517Z,0.00
2023-03-01T03:18:29.498Z,0.00
2023-03-01T03:19:29.507Z,0.00
2023-03-01T03:20:29.486Z,0.00
2023-03-01T03:21:29.475Z,0.00
2023-03-01T03:22:29.457Z,0.00
2023-03-01T03:23:29.444Z,0.00
2023-03-01T03:24:29.435Z,0.00
2023-03-01T03:25:29.435Z,0.00
2023-03-01T03:26:29.881Z,0.00
2023-03-01T03:27:29.404Z,0.00
2023-03-01T03:28:29.388Z,0.00
2023-03-01T03:29:29.386Z,0.00
2023-03-01T03:30:29.389Z,0.00
2023-03-01T03:31:29.399Z,0.00
2023-03-01T03:32:29.375Z,0.00
2023-03-01T03:33:29.333Z,0.00
2023-03-01T03:34:29.324Z,0.00
2023-03-01T03:35:29.363Z,0.00
2023-03-01T03:36:29.501Z,0.00
2023-03-01T03:37:29.300Z,0.00
2023-03-01T03:38:29.280Z,0.00
2023-03-01T03:39:29.274Z,0.00
2023-03-01T03:40:29.271Z,0.00
2023-03-01T03:41:29.252Z,0.00
2023-03-01T03:42:29.250Z,0.00
2023-03-01T03:43:29.232Z,0.00
2023-03-01T03:44:29.211Z,0.00
2023-03-01T03:45:29.234Z,0.00
2023-03-01T03:46:29.192Z,0.00
2023-03-01T03:47:29.181Z,0.00
2023-03-01T03:48:29.190Z,0.00
2023-03-01T03:49:29.159Z,0.00
2023-03-01T03:50:29.163Z,0.00
2023-03-01T03:51:29.141Z,0.00
2023-03-01T03:52:29.120Z,0.00
2023-03-01T03:53:29.118Z,0.00
2023-03-01T03:54:29.120Z,0.00
2023-03-01T03:55:29.094Z,0.00
2023-03-01T03:56:29.148Z,0.00
2023-03-01T03:57:29.070Z,0.00
2023-03-01T03:58:29.058Z,0.00
2023-03-01T03:59:29.049Z,0.00
2023-03-01T04:00:29.047Z,0.00
2023-03-01T04:01:29.067Z,0.00
2023-03-01T04:02:29.061Z,0.00
2023-03-01T04:03:29.036Z,0.00
2023-03-01T04:04:28.992Z,0.00
2023-03-01T04:05:29.070Z,0.00
2023-03-01T04:06:29.189Z,0.00
2023-03-01T04:07:28.969Z,0.00
2023-03-01T04:08:28.948Z,0.00
2023-03-01T04:09:28.940Z,0.00
2023-03-01T04:10:28.946Z,0.00
2023-03-01T04:11:29.066Z,0.00
2023-03-01T04:12:28.907Z,0.00
2023-03-01T04:13:28.907Z,0.00
2023-03-01T04:14:28.887Z,0.00
2023-03-01T04:15:28.876Z,0.00
2023-03-01T04:16:29.185Z,0.00
2023-03-01T04:17:28.867Z,0.00
2023-03-01T04:18:28.837Z,0.00
2023-03-01T04:19:28.827Z,0.00
2023-03-01T04:20:28.821Z,0.00
2023-03-01T04:21:28.807Z,0.00
2023-03-01T04:22:28.817Z,0.00
2023-03-01T04:23:28.791Z,0.00
2023-03-01T04:24:28.766Z,0.00
2023-03-01T04:25:28.784Z,0.00
2023-03-01T04:26:29.142Z,0.00
2023-03-01T04:27:28.746Z,0.00
2023-03-01T04:28:28.750Z,0.00
2023-03-01T04:29:28.724Z,0.00
2023-03-01T04:30:28.707Z,0.00
2023-03-01T04:31:28.729Z,0.00
2023-03-01T04:32:28.772Z,0.00
2023-03-01T04:33:28.686Z,0.00
2023-03-01T04:34:28.718Z,0.00
2023-03-01T04:35:28.746Z,0.00
2023-03-01T04:36:28.821Z,0.00
2023-03-01T04:37:28.636Z,0.00
2023-03-01T04:38:28.627Z,0.00
2023-03-01T04:39:28.616Z,0.00
2023-03-01T04:40:28.616Z,0.00
2023-03-01T04:41:28.630Z,0.00
2023-03-01T04:42:28.582Z,0.00
2023-03-01T04:43:28.573Z,0.00
2023-03-01T04:44:28.565Z,0.00
2023-03-01T04:45:28.544Z,0.00
2023-03-01T04:46:28.683Z,0.00
2023-03-01T04:47:28.536Z,0.00
2023-03-01T04:48:28.524Z,0.00
2023-03-01T04:49:28.507Z,0.00
2023-03-01T04:50:28.532Z,0.00
2023-03-01T04:51:28.482Z,0.00
2023-03-01T04:52:28.484Z,0.00
2023-03-01T04:53:28.464Z,0.00
2023-03-01T04:54:28.443Z,0.00
2023-03-01T04:55:28.471Z,0.00
2023-03-01T04:56:28.558Z,0.00
2023-03-01T04:57:28.412Z,0.00
2023-03-01T04:58:28.426Z,0.00
2023-03-01T04:59:28.400Z,0.00
2023-03-01T05:00:28.384Z,0.00
2023-03-01T05:01:28.372Z,0.00
2023-03-01T05:02:28.424Z,0.00
2023-03-01T05:03:28.362Z,0.00
2023-03-01T05:04:28.412Z,0.00
2023-03-01T05:05:28.329Z,0.00
2023-03-01T05:06:28.339Z,0.00
2023-03-01T05:07:28.302Z,0.00
2023-03-01T05:08:28.290Z,0.00
2023-03-01T05:09:28.310Z,0.00
2023-03-01T05:10:28.271Z,0.00
2023-03-01T05:11:28.261Z,0.00
2023-03-01T05:12:28.244Z,0.00
2023-03-01T05:13:28.241Z,0.00
2023-03-01T05:14:28.230Z,0.00
2023-03-01T05:15:28.242Z,0.00
2023-03-01T05:16:28.660Z,0.00
2023-03-01T05:17:28.201Z,0.00
2023-03-01T05:18:28.188Z,0.00
2023-03-01T05:19:28.187Z,0.00
2023-03-01T05:20:28.221Z,0.00
2023-03-01T05:21:28.172Z,0.00
2023-03-01T05:22:28.139Z,0.00
2023-03-01T05:23:28.140Z,0.00
2023-03-01T05:24:28.118Z,0.00
2023-03-01T05:25:28.142Z,0.00
2023-03-01T05:26:28.890Z,0.00
2023-03-01T05:27:28.096Z,0.00
2023-03-01T05:28:28.106Z,0.00
2023-03-01T05:29:28.167Z,0.00
2023-03-01T05:30:28.048Z,0.00
2023-03-01T05:31:28.114Z,0.00
2023-03-01T05:32:28.082Z,0.00
2023-03-01T05:33:28.018Z,0.00
2023-03-01T05:34:28.025Z,0.00
2023-03-01T05:35:28.014Z,0.00
2023-03-01T05:36:28.004Z,0.00
2023-03-01T05:37:27.980Z,4.00
2023-03-01T05:38:27.988Z,0.00
2023-03-01T05:39:27.970Z,0.00
2023-03-01T05:40:27.938Z,4.00
2023-03-01T05:41:27.937Z,0.00
2023-03-01T05:42:27.943Z,4.00
2023-03-01T05:43:27.938Z,4.00
2023-03-01T05:44:27.948Z,4.00
2023-03-01T05:45:27.901Z,8.00
2023-03-01T05:46:27.875Z,8.00
2023-03-01T05:47:27.866Z,8.00
2023-03-01T05:48:27.865Z,12.00
2023-03-01T05:49:27.866Z,16.00
2023-03-01T05:50:27.837Z,16.00
2023-03-01T05:51:27.826Z,20.00
2023-03-01T05:52:27.813Z,24.00
2023-03-01T05:53:27.816Z,28.00
2023-03-01T05:54:27.786Z,32.00
2023-03-01T05:55:29.132Z,36.00
2023-03-01T05:56:27.958Z,40.00
2023-03-01T05:57:27.774Z,48.00
2023-03-01T05:58:27.747Z,52.00
2023-03-01T05:59:27.736Z,60.00
2023-03-01T06:00:27.747Z,72.00
2023-03-01T06:01:27.715Z,80.00
2023-03-01T06:02:27.716Z,88.00
2023-03-01T06:03:27.698Z,100.00
2023-03-01T06:04:27.731Z,116.00
2023-03-01T06:05:27.796Z,128.00
2023-03-01T06:06:29.174Z,144.00
2023-03-01T06:07:27.685Z,164.00
2023-03-01T06:08:27.652Z,180.00
2023-03-01T06:09:27.641Z,200.00
2023-03-01T06:10:27.616Z,220.00
2023-03-01T06:11:27.646Z,244.00
2023-03-01T06:12:27.605Z,276.00
2023-03-01T06:13:27.586Z,304.00
2023-03-01T06:14:27.576Z,336.00
2023-03-01T06:15:27.567Z,372.00
2023-03-01T06:16:27.578Z,412.00
2023-03-01T06:17:27.555Z,460.00
2023-03-01T06:18:27.536Z,508.00
2023-03-01T06:19:27.524Z,572.00
2023-03-01T06:20:27.505Z,640.00
2023-03-01T06:21:27.496Z,720.00
2023-03-01T06:22:27.486Z,816.00
2023-03-01T06:23:27.494Z,924.00
2023-03-01T06:24:27.466Z,1040.00
2023-03-01T06:25:27.459Z,1164.00
2023-03-01T06:26:27.435Z,1288.00
2023-03-01T06:27:27.447Z,1432.00
2023-03-01T06:28:27.416Z,1600.00
2023-03-01T06:29:27.434Z,1796.00
2023-03-01T06:30:27.398Z,2000.00
2023-03-01T06:31:27.435Z,2200.00
2023-03-01T06:32:27.456Z,2384.00
2023-03-01T06:33:27.368Z,2556.00
2023-03-01T06:34:27.382Z,2716.00
2023-03-01T06:35:27.404Z,2864.00
2023-03-01T06:36:27.353Z,3000.00
2023-03-01T06:37:27.317Z,3108.00
2023-03-01T06:38:27.330Z,3192.00
2023-03-01T06:39:27.296Z,3276.00
2023-03-01T06:40:27.307Z,3348.00
2023-03-01T06:41:27.277Z,3400.00
2023-03-01T06:42:27.304Z,3436.00
2023-03-01T06:43:27.252Z,3456.00
2023-03-01T06:44:27.249Z,3452.00
2023-03-01T06:45:27.225Z,3412.00
2023-03-01T06:46:27.299Z,3360.00
2023-03-01T06:47:27.205Z,3308.00
2023-03-01T06:48:27.194Z,3296.00
2023-03-01T06:49:27.194Z,3340.00
2023-03-01T06:50:27.217Z,3476.00
2023-03-01T06:51:27.165Z,3692.00
2023-03-01T06:52:27.173Z,3856.00
2023-03-01T06:53:27.144Z,3980.00
2023-03-01T06:54:27.129Z,4184.00
2023-03-01T06:55:27.110Z,4500.00
2023-03-01T06:56:27.103Z,4860.00
2023-03-01T06:57:27.110Z,5100.00
2023-03-01T06:58:27.094Z,5228.00
2023-03-01T06:59:27.067Z,5172.00
2023-03-01T07:00:27.057Z,5184.00
2023-03-01T07:01:27.079Z,5348.00
2023-03-01T07:02:27.045Z,5332.00
2023-03-01T07:03:27.036Z,5436.00
2023-03-01T07:04:27.019Z,5764.00
2023-03-01T07:05:27.004Z,6200.00
2023-03-01T07:06:26.987Z,6720.00
2023-03-01T07:07:26.974Z,7284.00
2023-03-01T07:08:26.971Z,7976.00
2023-03-01T07:09:26.973Z,8468.00
2023-03-01T07:10:26.944Z,8768.00
2023-03-01T07:11:26.925Z,8696.00
2023-03-01T07:12:26.929Z,8524.00
2023-03-01T07:13:26.915Z,8828.00
2023-03-01T07:14:26.895Z,9628.00
2023-03-01T07:15:26.925Z,10128.00
2023-03-01T07:16:26.919Z,10644.00
2023-03-01T07:17:26.872Z,11296.00
2023-03-01T07:18:26.856Z,11680.00
2023-03-01T07:19:26.835Z,12112.00
2023-03-01T07:20:26.913Z,12360.00
2023-03-01T07:21:26.832Z,12344.00
2023-03-01T07:22:26.816Z,12456.00
2023-03-01T07:23:26.794Z,12400.00
2023-03-01T07:24:26.787Z,12408.00
2023-03-01T07:25:26.783Z,12492.00
2023-03-01T07:26:26.769Z,12752.00
2023-03-01T07:27:26.767Z,12896.00
2023-03-01T07:28:26.742Z,12704.00
2023-03-01T07:29:26.723Z,12696.00
2023-03-01T07:30:26.792Z,12880.00
2023-03-01T07:31:26.705Z,12776.00
2023-03-01T07:32:26.792Z,12736.00
2023-03-01T07:33:26.696Z,12884.00
2023-03-01T07:34:26.674Z,12852.00
2023-03-01T07:35:26.711Z,12836.00
2023-03-01T07:36:26.657Z,12852.00
2023-03-01T07:37:26.643Z,12888.00
2023-03-01T07:38:26.624Z,13164.00
2023-03-01T07:39:26.621Z,14528.00
2023-03-01T07:40:26.610Z,15488.00
2023-03-01T07:41:26.604Z,15808.00
2023-03-01T07:42:26.627Z,16448.00
2023-03-01T07:43:26.581Z,16928.00
2023-03-01T07:44:26.562Z,17504.00
2023-03-01T07:45:26.590Z,17760.00
2023-03-01T07:46:26.541Z,17792.00
2023-03-01T07:47:26.524Z,18304.00
2023-03-01T07:48:26.519Z,19008.00
2023-03-01T07:49:26.504Z,19168.00
2023-03-01T07:50:26.512Z,19264.00
2023-03-01T07:51:26.497Z,19872.00
2023-03-01T07:52:26.466Z,20448.00
2023-03-01T07:53:26.452Z,20320.00
2023-03-01T07:54:26.448Z,20512.00
2023-03-01T07:55:26.426Z,20672.00
2023-03-01T07:56:26.437Z,20864.00
2023-03-01T07:57:26.412Z,20992.00
2023-03-01T07:58:26.420Z,21152.00
2023-03-01T07:59:26.383Z,21024.00
2023-03-01T08:00:26.378Z,21440.00
2023-03-01T08:01:26.415Z,21888.00
2023-03-01T08:02:26.373Z,22272.00
2023-03-01T08:03:26.411Z,22432.00
2023-03-01T08:04:26.322Z,22368.00
2023-03-01T08:05:26.336Z,22336.00
2023-03-01T08:06:26.310Z,22752.00
2023-03-01T08:07:26.291Z,23936.00
2023-03-01T08:08:26.302Z,24416.00
2023-03-01T08:09:26.283Z,23680.00
2023-03-01T08:10:26.284Z,23520.00
2023-03-01T08:11:26.291Z,24000.00
2023-03-01T08:12:26.239Z,24160.00
2023-03-01T08:13:26.315Z,24032.00
2023-03-01T08:14:26.210Z,24224.00
2023-03-01T08:15:26.197Z,25024.00
2023-03-01T08:16:26.232Z,25184.00
2023-03-01T08:17:26.184Z,25344.00
2023-03-01T08:18:26.178Z,24896.00
2023-03-01T08:19:26.172Z,24512.00
2023-03-01T08:20:26.213Z,24896.00
2023-03-01T08:21:26.132Z,25408.00
2023-03-01T08:22:26.140Z,25728.00
2023-03-01T08:23:26.115Z,25984.00
2023-03-01T08:24:26.102Z,26400.00
2023-03-01T08:25:26.106Z,26304.00
2023-03-01T08:26:26.070Z,26720.00
2023-03-01T08:27:26.059Z,27200.00
2023-03-01T08:28:26.056Z,27552.00
2023-03-01T08:29:26.047Z,28256.00
2023-03-01T08:30:33.091Z,28608.00
2023-03-01T08:31:26.078Z,28288.00
2023-03-01T08:32:26.054Z,28704.00
2023-03-01T08:33:26.058Z,28896.00
2023-03-01T08:34:25.987Z,29760.00
2023-03-01T08:35:25.996Z,29216.00
2023-03-01T08:36:25.980Z,27232.00
2023-03-01T08:37:25.952Z,27840.00
2023-03-01T08:38:25.935Z,29312.00
2023-03-01T08:39:26.089Z,29632.00
2023-03-01T08:40:25.921Z,30336.00
2023-03-01T08:41:25.930Z,30688.00
2023-03-01T08:42:25.906Z,31008.00
2023-03-01T08:43:26.466Z,30720.00
2023-03-01T08:44:25.875Z,30624.00
2023-03-01T08:45:25.861Z,31328.00
2023-03-01T08:46:25.845Z,32224.00
2023-03-01T08:47:25.846Z,32288.00
2023-03-01T08:48:25.819Z,31904.00
2023-03-01T08:49:25.807Z,31840.00
2023-03-01T08:50:25.803Z,32928.00
2023-03-01T08:51:25.790Z,32096.00
2023-03-01T08:52:25.782Z,31712.00
2023-03-01T08:53:25.778Z,32032.00
2023-03-01T08:54:25.745Z,31488.00
2023-03-01T08:55:25.735Z,32320.00
2023-03-01T08:56:25.727Z,33248.00
2023-03-01T08:57:25.870Z,33408.00
2023-03-01T08:58:25.714Z,32544.00
2023-03-01T08:59:25.723Z,31264.00
2023-03-01T09:00:25.703Z,30240.00
2023-03-01T09:01:25.670Z,32128.00
2023-03-01T09:02:25.707Z,32992.00
2023-03-01T09:03:25.666Z,32608.00
2023-03-01T09:04:25.657Z,32768.00
2023-03-01T09:05:25.643Z,34112.00
2023-03-01T09:06:25.620Z,34880.00
2023-03-01T09:07:25.600Z,35040.00
2023-03-01T09:08:25.620Z,35744.00
2023-03-01T09:09:25.585Z,35520.00
2023-03-01T09:10:25.597Z,35488.00
2023-03-01T09:11:25.561Z,35648.00
2023-03-01T09:12:25.553Z,35680.00
2023-03-01T09:13:25.543Z,36928.00
2023-03-01T09:14:25.529Z,36448.00
2023-03-01T09:15:25.510Z,35680.00
2023-03-01T09:16:25.540Z,35488.00
2023-03-01T09:17:25.489Z,36864.00
2023-03-01T09:18:25.486Z,38208.00
2023-03-01T09:19:27.314Z,37088.00
2023-03-01T09:20:25.459Z,36288.00
2023-03-01T09:21:39.001Z,37504.00
2023-03-01T09:22:26.453Z,38336.00
2023-03-01T09:23:25.423Z,38080.00
2023-03-01T09:24:25.413Z,36128.00
2023-03-01T09:25:25.390Z,35968.00
2023-03-01T09:26:25.393Z,35200.00
2023-03-01T09:27:25.391Z,36736.00
2023-03-01T09:28:30.011Z,36224.00
2023-03-01T09:29:26.353Z,23680.00
2023-03-01T09:30:25.341Z,9372.00
2023-03-01T09:31:25.331Z,7892.00
2023-03-01T09:32:25.408Z,7556.00
2023-03-01T09:33:25.333Z,7408.00
2023-03-01T09:34:25.319Z,7340.00
2023-03-01T09:35:25.291Z,7320.00
2023-03-01T09:36:25.281Z,7332.00
2023-03-01T09:37:25.263Z,7332.00
2023-03-01T09:38:25.997Z,7328.00
2023-03-01T09:39:25.250Z,7340.00
2023-03-01T09:40:25.244Z,7332.00
2023-03-01T09:41:25.222Z,7312.00
2023-03-01T09:42:25.202Z,7300.00
2023-03-01T09:43:25.193Z,7264.00
2023-03-01T09:44:25.185Z,7248.00
2023-03-01T09:45:25.191Z,7216.00
2023-03-01T09:46:25.229Z,7192.00
2023-03-01T09:47:25.154Z,7164.00
2023-03-01T09:48:25.141Z,7120.00
2023-03-01T09:49:25.123Z,7088.00
2023-03-01T09:50:25.140Z,7048.00
2023-03-01T09:51:25.102Z,7008.00
2023-03-01T09:52:25.095Z,6968.00
2023-03-01T09:53:25.092Z,6996.00
2023-03-01T09:54:25.076Z,6968.00
2023-03-01T09:55:25.052Z,6952.00
2023-03-01T09:56:25.062Z,6924.00
2023-03-01T09:57:25.032Z,6912.00
2023-03-01T09:58:25.022Z,6884.00
2023-03-01T09:59:25.011Z,6876.00
2023-03-01T10:00:25.012Z,6868.00
2023-03-01T10:01:24.990Z,6832.00
2023-03-01T10:02:24.994Z,6820.00
2023-03-01T10:03:24.980Z,6824.00
2023-03-01T10:04:25.010Z,6824.00
2023-03-01T10:05:24.979Z,6808.00
2023-03-01T10:06:34.486Z,6768.00
2023-03-01T10:07:25.932Z,6728.00
2023-03-01T10:08:24.917Z,6692.00
2023-03-01T10:09:24.902Z,6680.00
2023-03-01T10:10:24.883Z,6704.00
2023-03-01T10:11:25.366Z,6712.00
2023-03-01T10:12:24.862Z,6684.00
2023-03-01T10:13:24.872Z,6720.00
2023-03-01T10:14:24.840Z,6748.00
2023-03-01T10:15:24.853Z,6732.00
2023-03-01T10:16:24.813Z,6692.00
2023-03-01T10:17:24.801Z,6676.00
2023-03-01T10:18:24.793Z,6668.00
2023-03-01T10:19:24.798Z,6684.00
2023-03-01T10:20:24.777Z,6672.00
2023-03-01T10:21:24.751Z,6696.00
2023-03-01T10:22:24.743Z,6644.00
2023-03-01T10:23:24.732Z,6612.00
2023-03-01T10:24:24.741Z,6592.00
2023-03-01T10:25:24.872Z,6548.00
2023-03-01T10:26:24.702Z,6532.00
2023-03-01T10:27:24.684Z,6504.00
2023-03-01T10:28:24.681Z,6496.00
2023-03-01T10:29:24.661Z,6472.00
2023-03-01T10:30:24.657Z,6448.00
2023-03-01T10:31:24.683Z,6416.00
2023-03-01T10:32:25.275Z,6412.00
2023-03-01T10:33:24.619Z,6440.00
2023-03-01T10:34:24.603Z,6420.00
2023-03-01T10:35:24.591Z,6380.00
2023-03-01T10:36:24.601Z,6368.00
2023-03-01T10:37:24.574Z,6380.00
2023-03-01T10:38:24.562Z,6396.00
2023-03-01T10:39:24.549Z,6380.00
2023-03-01T10:40:24.533Z,6368.00
2023-03-01T10:41:24.523Z,6380.00
2023-03-01T10:42:24.522Z,6356.00
2023-03-01T10:43:24.520Z,6340.00
2023-03-01T10:44:24.492Z,6320.00
2023-03-01T10:45:25.883Z,6284.00
2023-03-01T10:46:24.513Z,6256.00
2023-03-01T10:47:24.462Z,6216.00
2023-03-01T10:48:24.443Z,6168.00
2023-03-01T10:49:24.430Z,6156.00
2023-03-01T10:50:24.447Z,6152.00
2023-03-01T10:51:24.409Z,6136.00
2023-03-01T10:52:24.390Z,6116.00
2023-03-01T10:53:24.400Z,6088.00
2023-03-01T10:54:24.370Z,6048.00
2023-03-01T10:55:24.380Z,6008.00
2023-03-01T10:56:24.340Z,6000.00
2023-03-01T10:57:24.341Z,6016.00
2023-03-01T10:58:24.322Z,6040.00
2023-03-01T10:59:24.333Z,6032.00
2023-03-01T11:00:24.315Z,6032.00
2023-03-01T11:01:24.324Z,6012.00
2023-03-01T11:02:25.766Z,5984.00
2023-03-01T11:03:24.278Z,5960.00
2023-03-01T11:04:24.275Z,5964.00
2023-03-01T11:05:24.256Z,5952.00
2023-03-01T11:06:24.232Z,5940.00
2023-03-01T11:07:24.231Z,5936.00
2023-03-01T11:08:24.201Z,5932.00
2023-03-01T11:09:24.194Z,5912.00
2023-03-01T11:10:24.181Z,5904.00
2023-03-01T11:11:24.179Z,5864.00
2023-03-01T11:12:24.158Z,5832.00
2023-03-01T11:13:24.182Z,5832.00
2023-03-01T11:14:27.174Z,5824.00
2023-03-01T11:15:24.126Z,5812.00
2023-03-01T11:16:24.163Z,5820.00
2023-03-01T11:17:24.103Z,5816.00
2023-03-01T11:18:33.960Z,5784.00
2023-03-01T11:19:25.081Z,5748.00
2023-03-01T11:20:24.730Z,5704.00
2023-03-01T11:21:24.051Z,5672.00
2023-03-01T11:22:24.110Z,5640.00
2023-03-01T11:23:24.038Z,5624.00
2023-03-01T11:24:24.023Z,5620.00
2023-03-01T11:25:24.011Z,5616.00
2023-03-01T11:26:23.989Z,5600.00
2023-03-01T11:27:23.977Z,5604.00
2023-03-01T11:28:24.000Z,5616.00
2023-03-01T11:29:23.959Z,5616.00
2023-03-01T11:30:23.945Z,5612.00
2023-03-01T11:31:23.943Z,5600.00
2023-03-01T11:32:23.979Z,5584.00
2023-03-01T11:33:23.922Z,5568.00
2023-03-01T11:34:23.906Z,5576.00
2023-03-01T11:35:23.887Z,5564.00
2023-03-01T11:36:23.899Z,5544.00
2023-03-01T11:37:23.962Z,5544.00
2023-03-01T11:38:23.865Z,5528.00
2023-03-01T11:39:23.852Z,5500.00
2023-03-01T11:40:23.847Z,5480.00
2023-03-01T11:41:23.816Z,5460.00
2023-03-01T11:42:23.800Z,5444.00
2023-03-01T11:43:23.795Z,5436.00
2023-03-01T11:44:23.774Z,5440.00
2023-03-01T11:45:23.876Z,5408.00
2023-03-01T11:46:23.913Z,5400.00
2023-03-01T11:47:23.824Z,5388.00
2023-03-01T11:48:23.725Z,5392.00
2023-03-01T11:49:23.717Z,5400.00
2023-03-01T11:50:23.705Z,5412.00
2023-03-01T11:51:23.714Z,5396.00
2023-03-01T11:52:23.684Z,5376.00
2023-03-01T11:53:23.700Z,5364.00
2023-03-01T11:54:23.728Z,5344.00
2023-03-01T11:55:24.112Z,5356.00
2023-03-01T11:56:24.010Z,5332.00
2023-03-01T11:57:28.826Z,5328.00
2023-03-01T11:58:24.623Z,5328.00
2023-03-01T11:59:23.630Z,5320.00
2023-03-01T12:00:23.593Z,5292.00
2023-03-01T12:01:23.597Z,5284.00
2023-03-01T12:02:23.588Z,5276.00
2023-03-01T12:03:23.624Z,5272.00
2023-03-01T12:04:23.552Z,5252.00
2023-03-01T12:05:23.538Z,5248.00
2023-03-01T12:06:23.589Z,5228.00
2023-03-01T12:07:23.515Z,5224.00
2023-03-01T12:08:23.496Z,5212.00
2023-03-01T12:09:23.532Z,5208.00
2023-03-01T12:10:23.530Z,5196.00
2023-03-01T12:11:23.476Z,5196.00
2023-03-01T12:12:23.459Z,5180.00
2023-03-01T12:13:23.455Z,5168.00
2023-03-01T12:14:23.435Z,5160.00
2023-03-01T12:15:23.435Z,5148.00
2023-03-01T12:16:37.582Z,5140.00
2023-03-01T12:17:24.405Z,5124.00
2023-03-01T12:18:23.385Z,5116.00
2023-03-01T12:19:23.378Z,5112.00
2023-03-01T12:20:23.411Z,5112.00
2023-03-01T12:21:23.355Z,5120.00
2023-03-01T12:22:23.345Z,5116.00
2023-03-01T12:23:23.337Z,5108.00
2023-03-01T12:24:23.317Z,5108.00
2023-03-01T12:25:23.308Z,5100.00
2023-03-01T12:26:23.307Z,5108.00
2023-03-01T12:27:23.295Z,5104.00
2023-03-01T12:28:23.274Z,5096.00
2023-03-01T12:29:23.265Z,5092.00
2023-03-01T12:30:23.266Z,5092.00
2023-03-01T12:31:23.277Z,5088.00
2023-03-01T12:32:23.309Z,5088.00
2023-03-01T12:33:23.223Z,5088.00
2023-03-01T12:34:23.206Z,5068.00
2023-03-01T12:35:23.196Z,5080.00